Time;durP1;ratioP1;P1;durP2;ratioP2;P2;SDS_P1;SDS_P2;PMS_P1;PMS_P2;Temp;Humidity;BMP_temperature;BMP_pressure;BME280_temperature;BME280_humidity;BME280_pressure;Samples;Min_cycle;Max_cycle;Signal;HPM_P1;HPM_P2
2021/06/22 00:00:14;;;;;;;3.80;2.47;;;17.50;99.90;;;;;;5051008;28;20800;-73
2021/06/22 00:02:43;;;;;;;4.00;2.70;;;17.50;99.90;;;;;;5052311;28;20485;-72
2021/06/22 00:05:10;;;;;;;5.70;2.47;;;17.40;99.90;;;;;;5051120;28;20473;-74
2021/06/22 00:07:37;;;;;;;2.43;1.93;;;17.40;99.90;;;;;;5066880;28;20435;-73
2021/06/22 00:10:05;;;;;;;2.53;2.30;;;17.40;99.90;;;;;;5052061;28;20804;-74
2021/06/22 00:12:32;;;;;;;4.30;2.10;;;17.30;99.90;;;;;;5031684;28;20956;-73
2021/06/22 00:14:59;;;;;;;2.37;1.97;;;17.30;99.90;;;;;;5032588;28;20455;-74
2021/06/22 00:17:26;;;;;;;3.17;2.57;;;17.20;99.90;;;;;;5063764;28;20456;-74
2021/06/22 00:19:53;;;;;;;2.30;1.97;;;17.20;99.90;;;;;;5064333;28;20468;-74
2021/06/22 00:22:20;;;;;;;3.70;2.00;;;17.20;99.90;;;;;;5038703;28;20470;-72
2021/06/22 00:24:47;;;;;;;2.83;2.50;;;17.30;99.90;;;;;;5052102;28;20897;-73
2021/06/22 00:27:14;;;;;;;2.63;1.83;;;17.30;99.90;;;;;;5051600;28;20520;-73
2021/06/22 00:29:43;;;;;;;5.43;2.80;;;17.30;99.90;;;;;;5052099;28;20439;-73
2021/06/22 00:32:11;;;;;;;5.97;2.30;;;17.20;99.90;;;;;;5050076;28;20618;-73
2021/06/22 00:34:38;;;;;;;3.10;2.30;;;17.20;99.90;;;;;;5050978;28;20418;-72
2021/06/22 00:37:05;;;;;;;8.83;2.73;;;17.20;99.90;;;;;;5066139;28;20463;-73
2021/06/22 00:39:32;;;;;;;4.77;2.57;;;17.20;99.90;;;;;;5052004;28;20541;-74
2021/06/22 00:41:59;;;;;;;5.20;2.60;;;17.20;99.90;;;;;;5051472;28;20470;-74
2021/06/22 00:44:26;;;;;;;4.70;2.57;;;17.10;99.90;;;;;;5052176;28;20420;-73
2021/06/22 00:46:53;;;;;;;5.00;3.10;;;17.10;99.90;;;;;;5049093;28;20911;-73
2021/06/22 00:49:20;;;;;;;6.70;3.53;;;17.10;99.90;;;;;;5051844;28;20438;-73
2021/06/22 00:51:48;;;;;;;4.40;3.03;;;17.10;99.90;;;;;;5049283;28;20988;-73
2021/06/22 00:54:15;;;;;;;6.37;3.73;;;17.10;99.90;;;;;;5051077;28;20423;-73
2021/06/22 00:56:42;;;;;;;4.83;3.10;;;17.10;99.90;;;;;;5051341;28;20477;-73
2021/06/22 00:59:10;;;;;;;5.13;3.17;;;17.10;99.90;;;;;;5051379;28;20485;-74
2021/06/22 01:01:36;;;;;;;5.17;3.37;;;17.10;99.90;;;;;;5050085;28;20469;-73
2021/06/22 01:04:04;;;;;;;4.93;3.43;;;17.10;99.90;;;;;;5067097;28;20416;-74
2021/06/22 01:06:33;;;;;;;4.07;3.00;;;17.10;99.90;;;;;;5032807;28;20894;-73
2021/06/22 01:09:05;;;;;;;5.00;3.60;;;17.10;99.90;;;;;;5030181;28;20807;-75
2021/06/22 01:11:38;;;;;;;5.40;3.50;;;17.00;99.90;;;;;;5043686;28;20479;-73
2021/06/22 01:14:06;;;;;;;6.83;4.20;;;17.00;99.90;;;;;;5051665;28;20412;-73
2021/06/22 01:16:33;;;;;;;4.30;3.90;;;17.00;99.90;;;;;;5042947;28;20468;-71
2021/06/22 01:19:04;;;;;;;4.23;3.60;;;17.00;99.90;;;;;;5046458;28;20555;-73
2021/06/22 01:21:45;;;;;;;5.80;3.77;;;17.00;99.90;;;;;;5048378;28;20467;-73
2021/06/22 01:24:21;;;;;;;5.90;4.30;;;16.90;99.90;;;;;;5051548;28;20804;-74
2021/06/22 01:26:55;;;;;;;4.77;3.97;;;17.00;99.90;;;;;;5051213;28;20490;-73
2021/06/22 01:29:22;;;;;;;5.50;3.40;;;16.90;99.90;;;;;;5050080;28;20998;-74
2021/06/22 01:31:53;;;;;;;5.20;4.00;;;16.90;99.90;;;;;;5050278;28;20471;-73
2021/06/22 01:34:28;;;;;;;5.53;4.00;;;16.90;99.90;;;;;;5050174;28;20427;-73
2021/06/22 01:36:58;;;;;;;5.83;3.87;;;16.90;99.90;;;;;;5049057;28;20612;-73
2021/06/22 01:39:38;;;;;;;5.60;3.93;;;17.00;99.90;;;;;;5051299;28;20554;-74
2021/06/22 01:42:05;;;;;;;4.00;3.43;;;16.90;99.90;;;;;;5050505;28;20473;-73
2021/06/22 01:44:39;;;;;;;5.30;3.67;;;16.90;99.90;;;;;;5049943;28;20428;-74
2021/06/22 01:47:07;;;;;;;8.93;3.93;;;16.90;99.90;;;;;;5034428;28;20464;-73
2021/06/22 01:49:34;;;;;;;5.00;4.47;;;16.90;99.90;;;;;;5030213;28;20507;-74
2021/06/22 01:52:01;;;;;;;4.07;3.67;;;16.90;99.90;;;;;;5034959;28;20485;-72
2021/06/22 01:54:30;;;;;;;4.13;3.73;;;16.90;99.90;;;;;;5066794;28;20550;-73
2021/06/22 01:57:00;;;;;;;5.23;3.47;;;16.80;99.90;;;;;;5066275;28;20483;-73
2021/06/22 01:59:27;;;;;;;4.63;3.47;;;16.80;99.90;;;;;;5049830;28;20470;-73
2021/06/22 02:02:01;;;;;;;21.40;4.10;;;16.80;99.90;;;;;;5045183;28;20611;-73
2021/06/22 02:04:37;;;;;;;6.73;4.00;;;16.80;99.90;;;;;;5045180;28;20417;-73
2021/06/22 02:07:09;;;;;;;5.60;3.23;;;16.80;99.90;;;;;;5029834;28;20472;-73
2021/06/22 02:10:04;;;;;;;8.20;4.27;;;16.80;99.90;;;;;;5030676;28;20487;-74
2021/06/22 02:12:53;;;;;;;5.00;3.70;;;16.80;99.90;;;;;;5031183;28;20930;-73
2021/06/22 02:15:21;;;;;;;3.93;3.53;;;16.70;99.90;;;;;;5032904;28;20447;-74
2021/06/22 02:17:49;;;;;;;5.23;3.47;;;16.80;99.90;;;;;;5033242;28;20432;-73
2021/06/22 02:20:18;;;;;;;6.40;4.00;;;16.70;99.90;;;;;;5049438;28;20992;-74
2021/06/22 02:22:47;;;;;;;6.20;4.27;;;16.80;99.90;;;;;;5059726;28;20454;-74
2021/06/22 02:25:16;;;;;;;10.47;4.30;;;16.80;99.90;;;;;;5052323;28;20920;-73
2021/06/22 02:27:44;;;;;;;7.53;5.33;;;16.70;99.90;;;;;;5053028;28;20707;-73
2021/06/22 02:30:19;;;;;;;5.90;4.60;;;16.70;99.90;;;;;;5052382;28;20497;-75
2021/06/22 02:32:47;;;;;;;7.50;5.40;;;16.70;99.90;;;;;;5069976;28;20470;-73
2021/06/22 02:35:24;;;;;;;9.50;7.10;;;16.70;99.90;;;;;;5052823;28;20984;-73
2021/06/22 02:37:58;;;;;;;9.60;6.43;;;16.70;99.90;;;;;;5052998;28;20442;-72
2021/06/22 02:40:28;;;;;;;7.23;5.20;;;16.70;99.90;;;;;;5053850;28;20459;-73
2021/06/22 02:42:58;;;;;;;8.47;5.50;;;16.70;99.90;;;;;;5053103;28;20432;-72
2021/06/22 02:45:26;;;;;;;7.47;5.43;;;16.70;99.90;;;;;;5051527;28;20750;-73
2021/06/22 02:47:54;;;;;;;8.17;5.47;;;16.80;99.90;;;;;;5053995;28;20419;-73
2021/06/22 02:50:23;;;;;;;8.63;6.07;;;16.80;99.90;;;;;;5052413;28;20493;-72
2021/06/22 02:52:52;;;;;;;8.33;6.13;;;16.70;99.90;;;;;;5053067;28;20439;-74
2021/06/22 02:55:19;;;;;;;10.03;6.27;;;16.70;99.90;;;;;;5052530;28;20419;-74
2021/06/22 02:58:08;;;;;;;9.57;5.73;;;16.70;99.90;;;;;;5053708;28;20517;-73
2021/06/22 03:00:37;;;;;;;10.93;6.47;;;16.70;99.90;;;;;;5052434;28;20944;-72
2021/06/22 03:03:10;;;;;;;9.30;6.27;;;16.70;99.90;;;;;;5052224;28;20972;-72
2021/06/22 03:05:45;;;;;;;8.00;6.63;;;16.60;99.90;;;;;;5052043;28;20520;-73
2021/06/22 03:08:21;;;;;;;10.13;6.40;;;16.60;99.90;;;;;;5036890;28;20538;-74
2021/06/22 03:10:48;;;;;;;8.93;6.10;;;16.60;99.90;;;;;;5037826;28;20466;-74
2021/06/22 03:13:16;;;;;;;9.40;6.00;;;16.60;99.90;;;;;;5053761;28;20423;-73
2021/06/22 03:15:45;;;;;;;8.93;5.93;;;16.60;99.90;;;;;;5051215;28;20490;-74
2021/06/22 03:18:12;;;;;;;9.90;5.40;;;16.60;99.90;;;;;;5053272;28;20447;-73
2021/06/22 03:20:45;;;;;;;7.23;6.17;;;16.60;99.90;;;;;;5050886;28;20463;-73
2021/06/22 03:23:14;;;;;;;9.40;5.63;;;16.60;99.90;;;;;;5035828;28;20812;-73
2021/06/22 03:25:42;;;;;;;10.83;6.13;;;16.60;99.90;;;;;;5052895;28;20456;-73
2021/06/22 03:28:08;;;;;;;8.57;5.83;;;16.60;99.90;;;;;;5053104;28;20974;-73
2021/06/22 03:30:54;;;;;;;11.13;6.63;;;16.60;99.90;;;;;;5053144;28;20597;-73
2021/06/22 03:33:21;;;;;;;7.33;5.50;;;16.60;99.90;;;;;;5052325;28;20492;-73
2021/06/22 03:35:47;;;;;;;8.13;6.10;;;16.60;99.90;;;;;;5052815;28;20456;-72
2021/06/22 03:38:14;;;;;;;8.57;6.47;;;16.60;99.90;;;;;;5052266;28;20463;-73
2021/06/22 03:40:42;;;;;;;9.00;5.80;;;16.60;99.90;;;;;;5051333;28;20890;-73
2021/06/22 03:43:09;;;;;;;9.10;6.33;;;16.60;99.90;;;;;;5052193;28;20423;-74
2021/06/22 03:45:48;;;;;;;7.37;5.60;;;16.60;99.90;;;;;;5050786;28;20489;-72
2021/06/22 03:48:15;;;;;;;10.13;5.70;;;16.50;99.90;;;;;;5068217;28;20455;-75
2021/06/22 03:50:42;;;;;;;8.50;5.20;;;16.50;99.90;;;;;;5051082;28;20473;-72
2021/06/22 03:53:09;;;;;;;10.07;7.00;;;16.50;99.90;;;;;;5031127;28;20448;-74
2021/06/22 03:55:36;;;;;;;8.00;5.33;;;16.50;99.90;;;;;;5032468;28;20498;-73
2021/06/22 03:58:08;;;;;;;10.70;6.70;;;16.50;99.90;;;;;;5032954;28;20448;-74
2021/06/22 04:00:39;;;;;;;7.60;5.63;;;16.50;99.90;;;;;;5057314;28;20467;-73
2021/06/22 04:03:13;;;;;;;8.00;5.70;;;16.50;99.90;;;;;;5064884;28;20454;-73
2021/06/22 04:06:09;;;;;;;6.97;5.00;;;16.40;99.90;;;;;;5019005;28;20829;-74
2021/06/22 04:08:37;;;;;;;6.40;5.10;;;16.40;99.90;;;;;;5044717;28;20514;-72
2021/06/22 04:11:09;;;;;;;8.80;6.57;;;16.40;99.90;;;;;;5050566;28;20463;-73
2021/06/22 04:13:38;;;;;;;6.97;6.27;;;16.40;99.90;;;;;;5035229;28;20438;-73
2021/06/22 04:16:08;;;;;;;9.43;6.17;;;16.40;99.90;;;;;;5051056;28;20477;-72
2021/06/22 04:18:36;;;;;;;6.97;5.00;;;16.40;99.90;;;;;;5067834;28;20447;-74
2021/06/22 04:21:08;;;;;;;8.23;5.90;;;16.30;99.90;;;;;;5050577;28;20467;-73
2021/06/22 04:23:43;;;;;;;6.83;5.17;;;16.40;99.90;;;;;;5065676;28;20450;-73
2021/06/22 04:26:12;;;;;;;7.93;6.10;;;16.40;99.90;;;;;;5066989;28;20524;-73
2021/06/22 04:28:39;;;;;;;7.10;5.43;;;16.30;99.90;;;;;;5033856;28;20546;-74
2021/06/22 04:31:06;;;;;;;7.30;5.27;;;16.40;99.90;;;;;;5050847;28;20455;-72
2021/06/22 04:33:32;;;;;;;9.00;5.37;;;16.40;99.90;;;;;;5052341;28;20979;-73
2021/06/22 04:35:59;;;;;;;6.87;4.57;;;16.30;99.90;;;;;;5049913;28;21006;-73
2021/06/22 04:38:26;;;;;;;6.10;5.30;;;16.30;99.90;;;;;;5035847;28;20517;-74
2021/06/22 04:40:53;;;;;;;6.13;4.73;;;16.30;99.90;;;;;;5031884;28;20476;-72
2021/06/22 04:43:20;;;;;;;5.67;4.10;;;16.40;99.90;;;;;;5031106;28;20428;-73
2021/06/22 04:45:47;;;;;;;7.97;4.60;;;16.40;99.90;;;;;;5038908;28;20509;-72
2021/06/22 04:48:16;;;;;;;6.30;4.43;;;16.40;99.90;;;;;;5051738;28;20940;-73
2021/06/22 04:50:43;;;;;;;7.00;4.37;;;16.40;99.90;;;;;;5033694;28;20455;-73
2021/06/22 04:53:10;;;;;;;6.60;5.53;;;16.40;99.90;;;;;;5050392;28;20458;-73
2021/06/22 04:55:37;;;;;;;8.50;4.80;;;16.30;99.90;;;;;;5066917;28;20451;-74
2021/06/22 04:58:05;;;;;;;10.70;4.93;;;16.30;99.90;;;;;;5050314;28;20945;-73
2021/06/22 05:00:38;;;;;;;6.43;5.10;;;16.30;99.90;;;;;;5050448;28;20490;-72
2021/06/22 05:03:05;;;;;;;5.93;5.33;;;16.30;99.90;;;;;;5066149;28;20936;-73
2021/06/22 05:05:32;;;;;;;6.93;4.50;;;16.30;99.90;;;;;;5066763;28;20451;-72
2021/06/22 05:07:59;;;;;;;9.60;5.23;;;16.30;99.90;;;;;;5021648;28;20507;-74
2021/06/22 05:10:26;;;;;;;7.90;5.43;;;16.20;99.90;;;;;;5034127;28;20538;-74
2021/06/22 05:12:53;;;;;;;9.03;6.23;;;16.20;99.90;;;;;;5050397;28;20616;-76
2021/06/22 05:15:20;;;;;;;11.47;6.47;;;16.20;99.90;;;;;;5050129;28;20423;-76
2021/06/22 05:17:49;;;;;;;9.90;5.23;;;16.20;99.90;;;;;;5033157;28;20486;-76
2021/06/22 05:20:16;;;;;;;6.80;6.03;;;16.20;99.90;;;;;;5049610;28;20470;-75
2021/06/22 05:22:43;;;;;;;8.10;5.80;;;16.20;99.90;;;;;;5024173;28;20448;-76
2021/06/22 05:25:10;;;;;;;10.53;6.80;;;16.10;99.90;;;;;;5031195;28;20478;-75
2021/06/22 05:27:37;;;;;;;17.37;6.50;;;16.10;99.90;;;;;;5029956;28;20426;-75
2021/06/22 05:30:05;;;;;;;8.40;6.43;;;16.10;99.90;;;;;;5046502;28;20986;-76
2021/06/22 05:32:32;;;;;;;9.80;5.50;;;16.10;99.90;;;;;;5040108;28;20534;-75
2021/06/22 05:34:59;;;;;;;8.53;6.47;;;16.00;99.90;;;;;;5051823;28;20423;-74
2021/06/22 05:37:26;;;;;;;9.10;6.50;;;16.10;99.90;;;;;;5042205;28;20476;-75
2021/06/22 05:39:53;;;;;;;8.77;6.20;;;16.10;99.90;;;;;;5030009;28;20455;-75
2021/06/22 05:42:20;;;;;;;12.00;7.17;;;16.10;99.90;;;;;;5030871;28;20478;-76
2021/06/22 05:44:47;;;;;;;8.33;6.10;;;16.10;99.90;;;;;;5030399;28;20512;-76
2021/06/22 05:47:14;;;;;;;12.40;6.93;;;16.00;99.90;;;;;;5047369;28;20454;-75
2021/06/22 05:49:41;;;;;;;10.60;7.00;;;16.10;99.90;;;;;;5053882;28;20443;-75
2021/06/22 05:52:08;;;;;;;14.37;8.23;;;16.10;99.90;;;;;;5031822;28;20467;-75
2021/06/22 05:54:37;;;;;;;13.03;7.60;;;16.00;99.90;;;;;;5035303;28;20427;-76
2021/06/22 05:57:06;;;;;;;15.10;8.50;;;16.00;99.90;;;;;;5034618;28;20498;-73
2021/06/22 05:59:33;;;;;;;13.70;8.60;;;16.00;99.90;;;;;;5034958;28;20455;-76
2021/06/22 06:02:00;;;;;;;15.37;9.70;;;16.00;99.90;;;;;;5042777;28;20501;-77
2021/06/22 06:04:28;;;;;;;16.00;10.23;;;16.00;99.90;;;;;;5053832;28;20877;-75
2021/06/22 06:06:56;;;;;;;13.20;9.20;;;16.00;99.90;;;;;;5052853;28;20475;-75
2021/06/22 06:09:26;;;;;;;13.90;9.13;;;16.00;99.90;;;;;;5053833;28;20473;-76
2021/06/22 06:11:53;;;;;;;18.83;11.30;;;16.00;99.90;;;;;;5054594;28;20549;-75
2021/06/22 06:14:21;;;;;;;16.90;9.47;;;16.00;99.90;;;;;;5053904;28;20438;-75
2021/06/22 06:16:48;;;;;;;11.90;8.27;;;16.00;99.90;;;;;;5050597;28;20506;-75
2021/06/22 06:19:15;;;;;;;11.37;8.53;;;16.00;99.90;;;;;;5053582;28;20435;-75
2021/06/22 06:21:42;;;;;;;11.70;9.00;;;16.00;99.90;;;;;;5053497;28;20509;-75
2021/06/22 06:24:10;;;;;;;14.90;9.30;;;16.00;99.90;;;;;;5054944;28;20510;-74
2021/06/22 06:29:26;;;;;;;11.20;8.60;;;15.90;99.90;;;;;;5052887;28;20458;-75
2021/06/22 06:31:53;;;;;;;12.13;7.70;;;15.90;99.90;;;;;;5052297;28;20494;-75
2021/06/22 06:34:19;;;;;;;13.70;8.17;;;15.90;99.90;;;;;;5053359;28;20948;-75
2021/06/22 06:36:47;;;;;;;12.07;7.60;;;15.90;99.90;;;;;;5052854;28;20467;-75
2021/06/22 06:39:14;;;;;;;10.20;7.33;;;15.90;99.90;;;;;;5053247;28;20451;-75
2021/06/22 06:41:41;;;;;;;9.53;7.30;;;16.00;99.90;;;;;;5053720;28;20459;-74
2021/06/22 06:44:08;;;;;;;11.60;7.87;;;16.00;99.90;;;;;;5054490;28;20420;-74
2021/06/22 06:46:35;;;;;;;10.67;6.63;;;16.10;99.90;;;;;;5052084;28;20471;-75
2021/06/22 06:49:04;;;;;;;7.40;6.20;;;16.10;99.90;;;;;;5041680;28;20458;-76
2021/06/22 06:51:31;;;;;;;8.17;6.57;;;16.00;99.90;;;;;;5033441;28;20482;-74
2021/06/22 06:53:58;;;;;;;7.70;6.70;;;16.10;99.90;;;;;;5053907;28;20487;-74
2021/06/22 06:56:25;;;;;;;10.07;6.70;;;16.10;99.90;;;;;;5052338;28;20459;-74
2021/06/22 06:58:52;;;;;;;9.23;6.27;;;16.20;99.90;;;;;;5052733;28;20547;-74
2021/06/22 07:01:19;;;;;;;12.90;6.70;;;16.20;99.90;;;;;;5051236;28;20483;-74
2021/06/22 07:03:46;;;;;;;9.30;6.50;;;16.20;99.90;;;;;;5036364;28;20434;-74
2021/06/22 07:06:14;;;;;;;12.30;6.47;;;16.30;99.90;;;;;;5053616;28;20859;-74
2021/06/22 07:08:41;;;;;;;13.17;5.60;;;16.30;99.90;;;;;;5052761;28;21019;-74
2021/06/22 07:11:08;;;;;;;8.33;6.70;;;16.20;99.90;;;;;;5053396;28;20533;-73
2021/06/22 07:13:38;;;;;;;14.90;6.90;;;16.20;99.90;;;;;;5053868;28;20419;-73
2021/06/22 07:16:05;;;;;;;12.70;6.40;;;16.30;99.90;;;;;;5052802;28;20467;-74
2021/06/22 07:18:32;;;;;;;8.80;5.30;;;16.30;99.90;;;;;;5065114;28;20503;-73
2021/06/22 07:21:00;;;;;;;8.47;5.90;;;16.30;99.90;;;;;;5032042;28;20464;-75
2021/06/22 07:23:27;;;;;;;8.20;6.00;;;16.20;99.90;;;;;;5044633;28;20945;-74
2021/06/22 07:25:54;;;;;;;11.33;6.30;;;16.30;99.90;;;;;;5032128;28;21043;-73
2021/06/22 07:28:25;;;;;;;10.50;6.63;;;16.30;99.90;;;;;;5031978;28;20486;-73
2021/06/22 07:30:52;;;;;;;9.80;6.20;;;16.20;99.90;;;;;;5044393;28;20993;-74
2021/06/22 07:33:20;;;;;;;9.63;6.30;;;16.20;99.90;;;;;;5068638;28;20470;-74
2021/06/22 07:35:47;;;;;;;10.83;6.53;;;16.10;99.90;;;;;;5053058;28;20455;-73
2021/06/22 07:38:16;;;;;;;9.07;6.13;;;16.10;99.90;;;;;;5048170;28;20500;-74
2021/06/22 07:40:46;;;;;;;10.70;7.50;;;16.10;99.90;;;;;;5032788;28;20543;-74
2021/06/22 07:43:14;;;;;;;9.57;6.77;;;16.20;99.90;;;;;;5033439;28;20520;-73
2021/06/22 07:45:41;;;;;;;10.50;6.27;;;16.20;99.90;;;;;;5041015;28;20459;-73
2021/06/22 07:48:10;;;;;;;14.20;7.90;;;16.20;99.90;;;;;;5052941;28;20439;-74
2021/06/22 07:50:37;;;;;;;9.03;6.90;;;16.20;99.90;;;;;;5067823;28;20447;-72
2021/06/22 07:53:07;;;;;;;10.27;8.30;;;16.20;99.90;;;;;;5024074;28;20444;-73
2021/06/22 07:55:34;;;;;;;11.33;8.07;;;16.30;99.90;;;;;;5035667;28;21037;-74
2021/06/22 07:58:01;;;;;;;10.37;7.90;;;16.30;99.90;;;;;;5068110;28;20447;-73
2021/06/22 08:00:37;;;;;;;18.37;8.80;;;16.40;99.90;;;;;;5050906;28;20467;-73
2021/06/22 08:03:12;;;;;;;10.00;7.40;;;16.40;99.90;;;;;;5052525;28;20519;-73
2021/06/22 08:05:40;;;;;;;16.10;9.43;;;16.30;99.90;;;;;;5031425;28;20538;-72
2021/06/22 08:08:10;;;;;;;12.17;7.97;;;16.30;99.90;;;;;;5044758;28;20513;-74
2021/06/22 08:10:38;;;;;;;11.90;8.40;;;16.30;99.90;;;;;;5050337;28;20504;-74
2021/06/22 08:13:06;;;;;;;15.90;8.60;;;16.30;99.90;;;;;;5052276;28;20431;-73
2021/06/22 08:15:35;;;;;;;14.83;8.50;;;16.30;99.90;;;;;;5049292;28;20458;-73
2021/06/22 08:18:06;;;;;;;14.40;9.00;;;16.40;99.90;;;;;;5032234;28;20436;-73
2021/06/22 08:20:36;;;;;;;14.47;8.80;;;16.40;99.90;;;;;;5041338;28;20461;-74
2021/06/22 08:23:06;;;;;;;12.33;9.53;;;16.40;99.90;;;;;;5051456;28;20531;-73
2021/06/22 08:25:35;;;;;;;12.73;8.73;;;16.40;99.90;;;;;;5051981;28;20474;-72
2021/06/22 08:28:02;;;;;;;13.10;10.03;;;16.40;99.90;;;;;;5052072;28;20439;-74
2021/06/22 08:30:30;;;;;;;13.30;9.87;;;16.40;99.90;;;;;;5050686;28;20454;-73
2021/06/22 08:32:58;;;;;;;14.00;8.80;;;16.40;99.90;;;;;;5051027;28;20485;-74
2021/06/22 08:35:25;;;;;;;9.80;8.80;;;16.40;99.90;;;;;;5052041;28;20447;-74
2021/06/22 08:37:53;;;;;;;16.33;10.80;;;16.40;99.90;;;;;;5039331;28;20444;-72
2021/06/22 08:40:21;;;;;;;11.00;9.20;;;16.40;99.90;;;;;;5040449;28;20442;-74
2021/06/22 08:42:48;;;;;;;14.43;8.93;;;16.50;99.90;;;;;;5050918;28;20788;-73
2021/06/22 08:45:17;;;;;;;10.23;9.13;;;16.40;99.90;;;;;;5042110;28;20452;-73
2021/06/22 08:47:46;;;;;;;17.57;9.67;;;16.40;99.90;;;;;;5047228;28;20422;-74
2021/06/22 08:50:15;;;;;;;16.80;10.53;;;16.40;99.90;;;;;;5031623;28;20420;-73
2021/06/22 08:52:42;;;;;;;10.37;8.63;;;16.40;99.90;;;;;;5040155;28;20443;-74
2021/06/22 08:55:30;;;;;;;11.13;9.13;;;16.40;99.90;;;;;;5066886;28;20426;-73
2021/06/22 08:58:03;;;;;;;14.67;9.30;;;16.40;99.90;;;;;;5051464;28;20517;-74
2021/06/22 09:00:35;;;;;;;12.20;9.67;;;16.40;99.90;;;;;;5051123;28;20562;-73
2021/06/22 09:03:23;;;;;;;13.47;9.13;;;16.40;99.90;;;;;;5033345;28;20531;-72
2021/06/22 09:05:55;;;;;;;11.30;9.13;;;16.40;99.90;;;;;;5046866;28;20464;-73
2021/06/22 09:08:23;;;;;;;12.50;9.10;;;16.40;99.90;;;;;;5041949;28;20906;-74
2021/06/22 09:10:53;;;;;;;13.53;9.80;;;16.40;99.90;;;;;;5031348;28;20999;-73
2021/06/22 09:13:23;;;;;;;10.63;9.00;;;16.40;99.90;;;;;;5030774;28;20933;-73
2021/06/22 09:15:53;;;;;;;10.73;8.70;;;16.50;99.90;;;;;;5039763;28;20462;-73
2021/06/22 09:18:35;;;;;;;11.90;8.67;;;16.40;99.90;;;;;;5051561;28;20443;-73
2021/06/22 09:21:14;;;;;;;9.67;8.53;;;16.40;99.90;;;;;;5041074;28;20475;-72
2021/06/22 09:23:42;;;;;;;10.50;8.33;;;16.40;99.90;;;;;;5035857;28;20439;-73
2021/06/22 09:26:19;;;;;;;10.83;9.00;;;16.40;99.90;;;;;;5050728;28;20456;-74
2021/06/22 09:28:47;;;;;;;10.00;8.20;;;16.40;99.90;;;;;;5035659;28;20436;-73
2021/06/22 09:31:24;;;;;;;10.10;8.93;;;16.40;99.90;;;;;;5035349;28;20470;-74
2021/06/22 09:33:56;;;;;;;12.13;8.00;;;16.30;99.90;;;;;;5035863;28;20921;-73
2021/06/22 09:36:31;;;;;;;10.60;8.53;;;16.40;99.90;;;;;;5033692;28;20471;-74
2021/06/22 09:39:08;;;;;;;11.93;8.40;;;16.40;99.90;;;;;;5037502;28;20447;-73
2021/06/22 09:41:38;;;;;;;10.07;7.80;;;16.40;99.90;;;;;;5053800;28;20520;-73
2021/06/22 09:44:26;;;;;;;14.53;8.77;;;16.40;99.90;;;;;;5021279;28;20990;-73
2021/06/22 09:47:01;;;;;;;10.47;7.40;;;16.40;99.90;;;;;;5053955;28;20522;-74
2021/06/22 09:49:31;;;;;;;10.93;7.50;;;16.50;99.90;;;;;;5055509;28;20831;-73
2021/06/22 09:52:13;;;;;;;11.47;8.73;;;16.50;99.90;;;;;;5053729;28;20463;-74
2021/06/22 09:54:49;;;;;;;11.70;8.13;;;16.50;99.90;;;;;;5055317;28;20838;-73
2021/06/22 09:57:18;;;;;;;10.90;7.27;;;16.50;99.90;;;;;;5054328;28;20475;-74
2021/06/22 09:59:45;;;;;;;10.70;6.97;;;16.40;99.90;;;;;;5053829;28;20604;-72
2021/06/22 10:02:12;;;;;;;9.80;8.30;;;16.40;99.90;;;;;;5037709;28;21048;-73
2021/06/22 10:04:59;;;;;;;9.87;7.50;;;16.50;99.90;;;;;;5035272;28;20758;-74
2021/06/22 10:07:28;;;;;;;9.47;7.20;;;16.50;99.90;;;;;;5041109;28;20887;-72
2021/06/22 10:10:02;;;;;;;12.30;7.50;;;16.60;99.90;;;;;;5055020;28;20891;-72
2021/06/22 10:12:32;;;;;;;9.13;7.67;;;16.70;99.90;;;;;;5053568;28;20458;-72
2021/06/22 10:15:03;;;;;;;10.50;8.40;;;16.80;99.90;;;;;;5053752;28;20423;-73
2021/06/22 10:17:32;;;;;;;10.40;8.10;;;16.70;99.90;;;;;;5038622;28;20451;-72
2021/06/22 10:20:01;;;;;;;8.80;7.87;;;16.80;99.90;;;;;;5050095;28;20959;-72
2021/06/22 10:22:31;;;;;;;10.40;8.47;;;16.80;99.90;;;;;;5057333;28;20572;-73
2021/06/22 10:25:00;;;;;;;10.40;8.10;;;16.80;99.90;;;;;;5054438;28;20430;-72
2021/06/22 10:27:29;;;;;;;12.13;8.00;;;16.80;99.90;;;;;;5049306;28;20798;-72
2021/06/22 10:30:00;;;;;;;10.87;8.20;;;16.80;99.90;;;;;;5050345;28;20494;-72
2021/06/22 10:32:28;;;;;;;9.60;7.00;;;16.80;99.90;;;;;;5054457;28;20447;-73
2021/06/22 10:34:59;;;;;;;13.70;7.70;;;16.80;99.90;;;;;;5052372;28;21019;-73
2021/06/22 10:37:35;;;;;;;11.90;7.87;;;16.90;99.90;;;;;;5053279;28;20450;-73
2021/06/22 10:40:24;;;;;;;10.73;8.13;;;16.80;99.90;;;;;;5054314;28;20475;-73
2021/06/22 10:42:59;;;;;;;9.27;6.90;;;16.90;99.90;;;;;;5054290;28;20475;-74
2021/06/22 10:45:54;;;;;;;11.53;6.87;;;16.80;99.90;;;;;;5053346;28;20466;-73
2021/06/22 10:48:21;;;;;;;10.23;6.80;;;16.80;99.90;;;;;;5049524;28;20523;-72
2021/06/22 10:50:48;;;;;;;8.93;6.73;;;16.80;99.90;;;;;;5033649;28;20467;-73
2021/06/22 10:53:15;;;;;;;11.07;8.27;;;16.90;99.90;;;;;;5047342;28;20435;-72
2021/06/22 10:55:49;;;;;;;8.83;7.87;;;16.90;99.90;;;;;;5053888;28;20865;-72
2021/06/22 10:58:17;;;;;;;8.67;7.13;;;16.90;99.90;;;;;;5052532;28;20447;-72
2021/06/22 11:00:48;;;;;;;10.70;7.63;;;16.80;99.90;;;;;;5052365;28;20455;-73
2021/06/22 11:03:34;;;;;;;9.13;6.13;;;16.80;99.90;;;;;;5033026;28;20435;-72
2021/06/22 11:06:12;;;;;;;10.50;7.07;;;16.80;99.90;;;;;;5033475;28;20911;-73
2021/06/22 11:08:41;;;;;;;8.17;6.70;;;16.80;99.90;;;;;;5052090;28;20915;-74
2021/06/22 11:11:09;;;;;;;8.90;7.10;;;16.90;99.90;;;;;;5048744;28;20484;-72
2021/06/22 11:13:41;;;;;;;10.37;7.93;;;16.90;99.90;;;;;;5037759;28;20427;-71
2021/06/22 11:16:14;;;;;;;11.20;6.83;;;16.90;99.90;;;;;;5051418;28;20459;-73
2021/06/22 11:18:54;;;;;;;10.47;7.77;;;16.90;99.90;;;;;;5052365;28;21011;-73
2021/06/22 11:21:22;;;;;;;9.73;7.30;;;16.90;99.90;;;;;;5051767;28;20828;-72
2021/06/22 11:23:56;;;;;;;9.17;7.87;;;17.00;99.90;;;;;;5048596;28;20456;-74
2021/06/22 11:26:27;;;;;;;11.03;7.60;;;17.00;99.90;;;;;;5057446;28;20538;-73
2021/06/22 11:28:55;;;;;;;11.80;8.00;;;17.00;99.90;;;;;;5053323;28;20446;-73
2021/06/22 11:31:37;;;;;;;8.53;6.77;;;16.90;99.90;;;;;;5041508;28;20542;-72
2021/06/22 11:34:07;;;;;;;9.30;7.60;;;17.00;99.90;;;;;;5013698;28;20421;-73
2021/06/22 11:36:39;;;;;;;10.70;7.53;;;16.90;99.90;;;;;;5025159;28;20474;-74
2021/06/22 11:39:15;;;;;;;10.73;8.57;;;16.90;99.90;;;;;;5012053;28;20985;-72
2021/06/22 11:42:09;;;;;;;11.73;8.17;;;16.90;99.90;;;;;;5013210;28;20476;-72
2021/06/22 11:44:55;;;;;;;10.83;7.70;;;16.90;99.90;;;;;;5028871;28;20942;-73
2021/06/22 11:47:25;;;;;;;10.33;8.80;;;16.90;99.90;;;;;;5033487;28;20480;-73
2021/06/22 11:49:59;;;;;;;9.70;8.03;;;17.00;99.90;;;;;;5012043;28;20449;-73
2021/06/22 11:52:40;;;;;;;11.37;8.87;;;17.00;99.90;;;;;;5030623;28;20485;-73
2021/06/22 11:55:16;;;;;;;10.27;7.87;;;17.00;99.90;;;;;;5031460;28;20420;-72
2021/06/22 11:57:54;;;;;;;11.17;7.77;;;16.90;99.90;;;;;;5015289;28;20420;-74
2021/06/22 12:00:34;;;;;;;10.87;7.50;;;16.90;99.90;;;;;;5030475;28;20432;-73
2021/06/22 12:03:06;;;;;;;11.60;7.90;;;17.00;99.90;;;;;;5031835;28;20525;-73
2021/06/22 12:05:40;;;;;;;13.37;8.27;;;16.90;99.90;;;;;;5032517;28;20467;-75
2021/06/22 12:08:09;;;;;;;11.93;8.57;;;16.90;99.90;;;;;;5030858;28;20464;-76
2021/06/22 12:10:41;;;;;;;12.90;8.23;;;16.90;99.90;;;;;;5032373;28;20805;-73
2021/06/22 12:13:10;;;;;;;9.60;8.00;;;16.90;99.90;;;;;;5033008;28;20428;-75
2021/06/22 12:15:43;;;;;;;10.03;7.90;;;16.90;99.90;;;;;;5031397;28;20555;-72
2021/06/22 12:18:11;;;;;;;12.23;7.73;;;17.00;99.90;;;;;;5031278;28;20448;-76
2021/06/22 12:20:46;;;;;;;10.17;7.47;;;16.90;99.90;;;;;;5030891;28;20460;-73
2021/06/22 12:23:15;;;;;;;9.50;8.37;;;17.00;99.90;;;;;;5027373;28;20973;-74
2021/06/22 12:25:45;;;;;;;12.97;9.50;;;17.00;99.90;;;;;;5011195;28;21132;-75
2021/06/22 12:28:13;;;;;;;9.70;8.33;;;17.00;99.90;;;;;;5012503;28;20536;-76
2021/06/22 12:30:56;;;;;;;12.07;8.77;;;17.00;99.90;;;;;;5011108;28;20481;-73
2021/06/22 12:33:28;;;;;;;13.03;9.30;;;17.00;99.90;;;;;;5030673;28;20535;-75
2021/06/22 12:36:01;;;;;;;11.97;9.00;;;17.10;99.90;;;;;;5030494;28;20491;-73
2021/06/22 12:38:30;;;;;;;12.13;8.37;;;17.10;99.90;;;;;;5030288;28;20555;-76
2021/06/22 12:41:00;;;;;;;12.57;7.97;;;17.20;99.90;;;;;;5030722;28;20467;-75
2021/06/22 12:43:48;;;;;;;10.80;8.93;;;17.20;99.90;;;;;;5026984;28;20834;-75
2021/06/22 12:46:19;;;;;;;10.20;8.03;;;17.30;99.90;;;;;;5029409;28;20460;-75
2021/06/22 12:48:48;;;;;;;10.40;8.80;;;17.40;99.90;;;;;;5023542;28;20436;-75
2021/06/22 12:51:17;;;;;;;12.10;8.80;;;17.40;99.90;;;;;;5014161;28;20456;-74
2021/06/22 12:53:45;;;;;;;11.53;8.80;;;17.40;99.90;;;;;;5030277;28;20444;-75
2021/06/22 12:56:16;;;;;;;9.97;8.27;;;17.50;99.90;;;;;;5046911;28;20880;-76
2021/06/22 12:58:57;;;;;;;13.63;8.70;;;17.50;99.90;;;;;;5029814;28;20539;-75
2021/06/22 13:01:28;;;;;;;9.50;8.50;;;17.40;99.90;;;;;;5030379;28;20532;-74